Seadream 1 — C6PW8 — position and weather

sailwx.info

Track history (hours):
 
Tides and Currents Weather Stations Pressure Air Temp Water Temp Dewpoint Dewpoint Depression Visibility Wind Speed Wind Dir Waves Ship Positions

Seadream 1

Last reported at 2014-Oct-01 13:31 UTC. Time now 2014-Oct-01 14:26 UTC.
Position N 37°19' E 026°34'.

Length 105 m; draft 4.4 m.

Type: Ship. MMSI: 308908000.

Date/timePositionNaut miles runAvg speedWind from/ knotsBaromVisibWave heightAir tempDewpointWater temp
2014-Oct-01 13:31N 37°19' E 026°34'0 0.0
2014-Oct-01 12:11N 37°19' E 026°34'0 0.0
2014-Oct-01 07:16N 37°19' E 026°34'3 1.3
2014-Oct-01 04:33N 37°16' E 026°35'9 9.0
2014-Oct-01 03:33N 37°16' E 026°24'9 9.4
2014-Oct-01 02:34N 37°17' E 026°12'1010.0
2014-Oct-01 01:33N 37°18' E 025°60'1010.4
2014-Oct-01 00:33N 37°19' E 025°47'1010.5
2014-Sep-30 23:33N 37°20' E 025°34'10 9.9
2014-Sep-30 22:33N 37°20' E 025°21'9 9.0
2014-Sep-30 21:33N 37°25' E 025°11'7 6.9
2014-Sep-30 20:33N 37°27' E 025°19'0 0.0
2014-Sep-30 19:33N 37°27' E 025°19'0 0.0
2014-Sep-30 18:31N 37°27' E 025°19'0 0.0
2014-Sep-30 17:32N 37°27' E 025°19'0 0.0
2014-Sep-30 16:33N 37°27' E 025°19'0 0.0
2014-Sep-30 15:33N 37°27' E 025°19'0 0.0
2014-Sep-30 14:31N 37°27' E 025°19'0 0.0
2014-Sep-30 13:31N 37°27' E 025°19'0 0.0
2014-Sep-30 12:32N 37°27' E 025°19'0 0.1
2014-Sep-30 11:33N 37°27' E 025°19'0 0.0
2014-Sep-30 10:31N 37°27' E 025°19'0 0.0
2014-Sep-30 09:31N 37°27' E 025°19'0 0.0
2014-Sep-30 08:32N 37°27' E 025°19'0 0.1
2014-Sep-30 07:33N 37°27' E 025°19'0 0.0
2014-Sep-30 06:33N 37°27' E 025°19'0 0.0
2014-Sep-30 05:34N 37°27' E 025°19'1 1.0
2014-Sep-30 04:33N 37°27' E 025°18'1212.2
2014-Sep-30 03:34N 37°24' E 025°03'1010.4
2014-Sep-30 02:33N 37°20' E 024°51'8 7.8
2014-Sep-30 01:33N 37°19' E 024°42'1010.4
2014-Sep-30 00:33N 37°16' E 024°29'48 9.7
2014-Sep-29 19:33N 37°10' E 023°29'12 9.6
2014-Sep-29 18:16N 37°09' E 023°13'11 9.6
2014-Sep-29 17:06N 37°16' E 023°02'810.4
2014-Sep-29 16:21N 37°22' E 022°56'7 0.5
2014-Sep-29 02:17N 37°27' E 022°50'36 6.1
2014-Sep-28 20:22N 37°26' E 023°36'7 0.8
2014-Sep-28 11:17N 37°30' E 023°28'0 0.0
2014-Sep-28 10:26N 37°30' E 023°28'0 0.0
2014-Sep-28 09:22N 37°30' E 023°28'0 0.0
2014-Sep-28 06:12N 37°30' E 023°28'0 0.0
2014-Sep-28 00:21N 37°30' E 023°28'0 0.0
2014-Sep-27 20:18N 37°30' E 023°28'0 0.0
2014-Sep-27 18:10N 37°30' E 023°28'0 0.1
2014-Sep-27 17:33N 37°30' E 023°28'1111.3
2014-Sep-27 16:33N 37°37' E 023°39'1413.8
2014-Sep-27 15:33N 37°50' E 023°37'6 5.8
2014-Sep-27 14:31N 37°56' E 023°38'0 0.0
2014-Sep-27 13:32N 37°56' E 023°38'0 0.0
2014-Sep-27 12:31N 37°56' E 023°38'0 0.0
2014-Sep-27 11:32N 37°56' E 023°38'0 0.0
2014-Sep-27 10:32N 37°56' E 023°38'0 0.0
2014-Sep-27 09:32N 37°56' E 023°38'0 0.0
2014-Sep-27 08:33N 37°56' E 023°38'0 0.0
2014-Sep-27 07:32N 37°56' E 023°38'0 0.0
2014-Sep-27 06:33N 37°56' E 023°38'0 0.0
2014-Sep-27 05:34N 37°56' E 023°38'0 0.0
2014-Sep-27 04:31N 37°56' E 023°38'0 0.0
2014-Sep-27 03:32N 37°56' E 023°38'0 0.0
2014-Sep-27 02:33N 37°56' E 023°38'0 0.0
2014-Sep-27 01:33N 37°56' E 023°38'0 0.0
2014-Sep-27 00:31N 37°56' E 023°38'0 0.0
2014-Sep-26 23:32N 37°56' E 023°38'0 0.0
2014-Sep-26 22:32N 37°56' E 023°38'0 0.0
2014-Sep-26 21:33N 37°56' E 023°38'0 0.0
2014-Sep-26 20:34N 37°56' E 023°38'0 0.0
2014-Sep-26 19:31N 37°56' E 023°38'0 0.0
2014-Sep-26 18:32N 37°56' E 023°38'0 0.0
2014-Sep-26 17:33N 37°56' E 023°38'6 5.8
2014-Sep-26 16:34N 37°51' E 023°39'1414.1
2014-Sep-26 15:33N 37°37' E 023°43'1814.8
2014-Sep-26 14:19N 37°22' E 023°29'2 0.3
2014-Sep-26 04:31N 37°23' E 023°26'2 0.6
2014-Sep-26 01:27N 37°22' E 023°24'19 3.9
2014-Sep-25 20:33N 37°35' E 023°42'1010.0
2014-Sep-25 19:33N 37°38' E 023°30'10 9.9
2014-Sep-25 18:34N 37°41' E 023°18'1110.6
2014-Sep-25 17:33N 37°50' E 023°10'  
Track history (hours):
 
Tides and Currents Weather Stations Pressure Air Temp Water Temp Dewpoint Dewpoint Depression Visibility Wind Speed Wind Dir Waves Ship Positions

Seadream 1

Last reported at 2014-Oct-01 13:31 UTC. Time now 2014-Oct-01 14:26 UTC.
Position N 37°19' E 026°34'.

Length 105 m; draft 4.4 m.

Type: Ship. MMSI: 308908000.

Date/timePositionNaut miles runAvg speedWind from/ knotsBaromVisibWave heightAir tempDewpointWater temp
2014-Oct-01 13:31N 37°19' E 026°34'0 0.0
2014-Oct-01 12:11N 37°19' E 026°34'0 0.0
2014-Oct-01 07:16N 37°19' E 026°34'3 1.3
2014-Oct-01 04:33N 37°16' E 026°35'9 9.0
2014-Oct-01 03:33N 37°16' E 026°24'9 9.4
2014-Oct-01 02:34N 37°17' E 026°12'1010.0
2014-Oct-01 01:33N 37°18' E 025°60'1010.4
2014-Oct-01 00:33N 37°19' E 025°47'1010.5
2014-Sep-30 23:33N 37°20' E 025°34'10 9.9
2014-Sep-30 22:33N 37°20' E 025°21'9 9.0
2014-Sep-30 21:33N 37°25' E 025°11'7 6.9
2014-Sep-30 20:33N 37°27' E 025°19'0 0.0
2014-Sep-30 19:33N 37°27' E 025°19'0 0.0
2014-Sep-30 18:31N 37°27' E 025°19'0 0.0
2014-Sep-30 17:32N 37°27' E 025°19'0 0.0
2014-Sep-30 16:33N 37°27' E 025°19'0 0.0
2014-Sep-30 15:33N 37°27' E 025°19'0 0.0
2014-Sep-30 14:31N 37°27' E 025°19'0 0.0
2014-Sep-30 13:31N 37°27' E 025°19'0 0.0
2014-Sep-30 12:32N 37°27' E 025°19'0 0.1
2014-Sep-30 11:33N 37°27' E 025°19'0 0.0
2014-Sep-30 10:31N 37°27' E 025°19'0 0.0
2014-Sep-30 09:31N 37°27' E 025°19'0 0.0
2014-Sep-30 08:32N 37°27' E 025°19'0 0.1
2014-Sep-30 07:33N 37°27' E 025°19'0 0.0
2014-Sep-30 06:33N 37°27' E 025°19'0 0.0
2014-Sep-30 05:34N 37°27' E 025°19'1 1.0
2014-Sep-30 04:33N 37°27' E 025°18'1212.2
2014-Sep-30 03:34N 37°24' E 025°03'1010.4
2014-Sep-30 02:33N 37°20' E 024°51'8 7.8
2014-Sep-30 01:33N 37°19' E 024°42'1010.4
2014-Sep-30 00:33N 37°16' E 024°29'48 9.7
2014-Sep-29 19:33N 37°10' E 023°29'12 9.6
2014-Sep-29 18:16N 37°09' E 023°13'11 9.6
2014-Sep-29 17:06N 37°16' E 023°02'810.4
2014-Sep-29 16:21N 37°22' E 022°56'7 0.5
2014-Sep-29 02:17N 37°27' E 022°50'36 6.1
2014-Sep-28 20:22N 37°26' E 023°36'7 0.8
2014-Sep-28 11:17N 37°30' E 023°28'0 0.0
2014-Sep-28 10:26N 37°30' E 023°28'0 0.0
2014-Sep-28 09:22N 37°30' E 023°28'0 0.0
2014-Sep-28 06:12N 37°30' E 023°28'0 0.0
2014-Sep-28 00:21N 37°30' E 023°28'0 0.0
2014-Sep-27 20:18N 37°30' E 023°28'0 0.0
2014-Sep-27 18:10N 37°30' E 023°28'0 0.1
2014-Sep-27 17:33N 37°30' E 023°28'1111.3
2014-Sep-27 16:33N 37°37' E 023°39'1413.8
2014-Sep-27 15:33N 37°50' E 023°37'6 5.8
2014-Sep-27 14:31N 37°56' E 023°38'0 0.0
2014-Sep-27 13:32N 37°56' E 023°38'0 0.0
2014-Sep-27 12:31N 37°56' E 023°38'0 0.0
2014-Sep-27 11:32N 37°56' E 023°38'0 0.0
2014-Sep-27 10:32N 37°56' E 023°38'0 0.0
2014-Sep-27 09:32N 37°56' E 023°38'0 0.0
2014-Sep-27 08:33N 37°56' E 023°38'0 0.0
2014-Sep-27 07:32N 37°56' E 023°38'0 0.0
2014-Sep-27 06:33N 37°56' E 023°38'0 0.0
2014-Sep-27 05:34N 37°56' E 023°38'0 0.0
2014-Sep-27 04:31N 37°56' E 023°38'0 0.0
2014-Sep-27 03:32N 37°56' E 023°38'0 0.0
2014-Sep-27 02:33N 37°56' E 023°38'0 0.0
2014-Sep-27 01:33N 37°56' E 023°38'0 0.0
2014-Sep-27 00:31N 37°56' E 023°38'0 0.0
2014-Sep-26 23:32N 37°56' E 023°38'0 0.0
2014-Sep-26 22:32N 37°56' E 023°38'0 0.0
2014-Sep-26 21:33N 37°56' E 023°38'0 0.0
2014-Sep-26 20:34N 37°56' E 023°38'0 0.0
2014-Sep-26 19:31N 37°56' E 023°38'0 0.0
2014-Sep-26 18:32N 37°56' E 023°38'0 0.0
2014-Sep-26 17:33N 37°56' E 023°38'6 5.8
2014-Sep-26 16:34N 37°51' E 023°39'1414.1
2014-Sep-26 15:33N 37°37' E 023°43'1814.8
2014-Sep-26 14:19N 37°22' E 023°29'2 0.3
2014-Sep-26 04:31N 37°23' E 023°26'2 0.6
2014-Sep-26 01:27N 37°22' E 023°24'19 3.9
2014-Sep-25 20:33N 37°35' E 023°42'1010.0
2014-Sep-25 19:33N 37°38' E 023°30'10 9.9
2014-Sep-25 18:34N 37°41' E 023°18'1110.6
2014-Sep-25 17:33N 37°50' E 023°10'  

Dump ship's entire track history